Aultman, Pennsylvania
Current Conditions -  °F | °C
As of 12:55 PM on Saturday 25 Oct 2014 (Local Time) from KIDI Reporting Station
Overcast Overcast  
Wind Chill: 59°   Ceiling: 2600
Heat Index: 59°   Visibility: 10mi
Dew Point: 48°   Wind: 10mph
Humidity: 67%   Direction: 250°WSW
Pressure: 29.91"   Gusts: 17mph
Location:  40.56°N, 79.26°W
Report Text: KIDI 251655Z AUTO 25009G15KT 10SM OVC026 15/09 A2991 RMK A01
Loading
Personal Weather Stations






























Interactive Weather Map New forecast layout! Learn more

10-Day Weather Forecast

Advertisements
Track Severe Weather on mobile